createdAt,value
2023-02-20T00:01:12.166Z,5.98
2023-02-20T00:03:41.620Z,6.03
2023-02-20T00:06:11.408Z,6.07
2023-02-20T00:08:41.258Z,6.12
2023-02-20T00:11:13.264Z,6.16
2023-02-20T00:13:48.270Z,6.17
2023-02-20T00:16:17.761Z,6.20
2023-02-20T00:18:48.160Z,6.23
2023-02-20T00:21:17.776Z,6.29
2023-02-20T00:23:47.370Z,6.27
2023-02-20T00:26:19.540Z,6.33
2023-02-20T00:28:49.584Z,6.35
2023-02-20T00:31:21.223Z,6.28
2023-02-20T00:33:50.680Z,6.25
2023-02-20T00:36:21.802Z,6.26
2023-02-20T00:38:51.274Z,6.28
2023-02-20T00:41:23.303Z,6.33
2023-02-20T00:43:52.672Z,6.28
2023-02-20T00:46:22.323Z,6.34
2023-02-20T00:48:52.246Z,6.32
2023-02-20T00:51:40.388Z,6.35
2023-02-20T00:54:09.825Z,6.32
2023-02-20T00:56:41.820Z,6.28
2023-02-20T00:59:11.259Z,6.28
2023-02-20T01:01:40.794Z,6.30
2023-02-20T01:04:10.281Z,6.27
2023-02-20T01:06:39.641Z,6.26
2023-02-20T01:09:08.985Z,6.29
2023-02-20T01:11:41.050Z,6.29
2023-02-20T01:14:10.422Z,6.37
2023-02-20T01:16:39.805Z,6.37
2023-02-20T01:19:09.366Z,6.37
2023-02-20T01:21:38.755Z,6.36
2023-02-20T01:24:08.813Z,6.35
2023-02-20T01:26:40.804Z,6.33
2023-02-20T01:29:10.194Z,6.26
2023-02-20T01:31:39.784Z,6.27
2023-02-20T01:34:11.602Z,6.29
2023-02-20T01:36:40.960Z,6.25
2023-02-20T01:39:10.950Z,6.21
2023-02-20T01:41:42.987Z,6.20
2023-02-20T01:44:20.789Z,6.18
2023-02-20T01:46:54.095Z,6.10
2023-02-20T01:49:29.517Z,6.09
2023-02-20T01:52:06.298Z,6.12
2023-02-20T01:54:36.762Z,6.15
2023-02-20T01:57:12.396Z,6.17
2023-02-20T01:59:44.823Z,6.12
2023-02-20T02:02:16.863Z,6.14
2023-02-20T02:04:47.352Z,6.05
2023-02-20T02:07:17.967Z,5.98
2023-02-20T02:09:52.761Z,5.86
2023-02-20T02:12:25.343Z,5.76
2023-02-20T02:14:54.714Z,5.74
2023-02-20T02:17:43.011Z,5.70
2023-02-20T02:20:36.492Z,5.68
2023-02-20T02:23:30.477Z,5.53
2023-02-20T02:26:11.122Z,5.53
2023-02-20T02:29:12.708Z,5.45
2023-02-20T02:32:24.068Z,5.50
2023-02-20T02:35:17.569Z,5.55
2023-02-20T02:37:52.806Z,5.45
2023-02-20T02:40:30.756Z,5.46
2023-02-20T02:43:10.462Z,5.46
2023-02-20T02:45:46.932Z,5.38
2023-02-20T02:48:22.909Z,5.34
2023-02-20T02:50:57.080Z,5.42
2023-02-20T02:53:29.081Z,5.58
2023-02-20T02:56:18.559Z,5.72
2023-02-20T02:58:48.398Z,5.79
2023-02-20T03:01:20.689Z,5.83
2023-02-20T03:03:55.587Z,5.89
2023-02-20T03:06:30.745Z,5.88
2023-02-20T03:09:07.018Z,5.87
2023-02-20T03:11:38.090Z,5.87
2023-02-20T03:14:23.642Z,5.96
2023-02-20T03:17:00.135Z,5.98
2023-02-20T03:19:35.838Z,6.02
2023-02-20T03:22:08.808Z,6.11
2023-02-20T03:24:55.300Z,6.10
2023-02-20T03:27:39.535Z,6.18
2023-02-20T03:30:18.553Z,6.22
2023-02-20T03:33:07.039Z,6.22
2023-02-20T03:35:53.876Z,6.22
2023-02-20T03:38:38.781Z,6.26
2023-02-20T03:41:24.924Z,6.34
2023-02-20T03:43:56.091Z,6.37
2023-02-20T03:46:27.317Z,6.41
2023-02-20T03:49:02.360Z,6.39
2023-02-20T03:51:44.610Z,6.38
2023-02-20T03:54:23.611Z,6.38
2023-02-20T03:57:00.095Z,6.35
2023-02-20T03:59:35.094Z,6.39
2023-02-20T04:02:08.867Z,6.40
2023-02-20T04:04:42.891Z,6.46
2023-02-20T04:07:22.226Z,6.48
2023-02-20T04:09:51.682Z,6.55
2023-02-20T04:12:28.093Z,6.56
2023-02-20T04:15:00.829Z,6.57
2023-02-20T04:17:32.997Z,6.62
2023-02-20T04:20:02.937Z,6.63
2023-02-20T04:22:40.853Z,6.67
2023-02-20T04:25:17.565Z,6.76
2023-02-20T04:27:50.172Z,6.74
2023-02-20T04:30:19.870Z,6.79
2023-02-20T04:32:49.306Z,6.71
2023-02-20T04:35:21.026Z,6.69
2023-02-20T04:37:52.985Z,6.71
2023-02-20T04:40:25.461Z,6.72
2023-02-20T04:42:57.486Z,6.71
2023-02-20T04:45:26.947Z,6.67
2023-02-20T04:47:56.455Z,6.76
2023-02-20T04:50:28.560Z,6.81
2023-02-20T04:52:58.534Z,6.78
2023-02-20T04:55:29.210Z,6.76
2023-02-20T04:58:04.937Z,6.76
2023-02-20T05:00:47.015Z,6.73
2023-02-20T05:03:17.016Z,6.79
2023-02-20T05:05:46.506Z,6.83
2023-02-20T05:08:15.879Z,6.94
2023-02-20T05:10:45.351Z,6.92
2023-02-20T05:13:17.382Z,6.88
2023-02-20T05:15:46.993Z,6.96
2023-02-20T05:18:16.492Z,7.00
2023-02-20T05:20:58.467Z,7.04
2023-02-20T05:23:27.866Z,7.06
2023-02-20T05:25:57.274Z,7.08
2023-02-20T05:28:29.288Z,7.06
2023-02-20T05:30:58.721Z,7.10
2023-02-20T05:33:28.124Z,7.03
2023-02-20T05:35:57.578Z,7.02
2023-02-20T05:38:26.922Z,7.00
2023-02-20T05:40:56.419Z,7.00
2023-02-20T05:43:25.830Z,7.00
2023-02-20T05:45:57.789Z,6.94
2023-02-20T05:48:27.170Z,6.98
2023-02-20T05:50:56.543Z,7.02
2023-02-20T05:53:26.810Z,6.96
2023-02-20T05:55:56.164Z,7.00
2023-02-20T05:58:26.433Z,6.99
2023-02-20T06:00:58.393Z,7.01
2023-02-20T06:03:27.762Z,7.02
2023-02-20T06:05:57.522Z,7.00
2023-02-20T06:08:26.950Z,7.00
2023-02-20T06:10:56.384Z,6.93
2023-02-20T06:13:25.756Z,6.92
2023-02-20T06:15:57.965Z,6.99
2023-02-20T06:18:27.384Z,7.04
2023-02-20T06:20:56.952Z,7.07
2023-02-20T06:23:26.476Z,7.04
2023-02-20T06:25:55.928Z,7.18
2023-02-20T06:28:25.471Z,7.17
2023-02-20T06:30:54.890Z,7.19
2023-02-20T06:33:27.153Z,7.18
2023-02-20T06:35:56.526Z,7.18
2023-02-20T06:38:26.070Z,7.12
2023-02-20T06:40:55.728Z,7.17
2023-02-20T06:43:25.261Z,7.15
2023-02-20T06:45:54.824Z,7.19
2023-02-20T06:48:26.871Z,7.21
2023-02-20T06:50:57.303Z,7.15
2023-02-20T06:53:26.690Z,7.22
2023-02-20T06:55:56.103Z,7.25
2023-02-20T06:58:25.457Z,7.26
2023-02-20T07:00:55.299Z,7.28
2023-02-20T07:03:27.365Z,7.31
2023-02-20T07:05:56.870Z,7.28
2023-02-20T07:08:26.333Z,7.27
2023-02-20T07:10:56.802Z,7.33
2023-02-20T07:13:26.224Z,7.28
2023-02-20T07:15:55.677Z,7.28
2023-02-20T07:18:28.111Z,7.34
2023-02-20T07:20:58.005Z,7.37
2023-02-20T07:23:27.529Z,7.36
2023-02-20T07:25:57.214Z,7.32
2023-02-20T07:28:27.069Z,7.38
2023-02-20T07:30:56.558Z,7.35
2023-02-20T07:33:28.548Z,7.37
2023-02-20T07:35:57.989Z,7.34
2023-02-20T07:38:27.412Z,7.36
2023-02-20T07:40:56.778Z,7.44
2023-02-20T07:43:26.169Z,7.40
2023-02-20T07:45:55.572Z,7.45
2023-02-20T07:48:25.030Z,7.46
2023-02-20T07:50:57.037Z,7.42
2023-02-20T07:53:26.497Z,7.50
2023-02-20T07:55:55.954Z,7.48
2023-02-20T07:58:25.388Z,7.56
2023-02-20T08:00:55.073Z,7.61
2023-02-20T08:03:24.446Z,7.64
2023-02-20T08:05:53.865Z,7.66
2023-02-20T08:08:26.258Z,7.70
2023-02-20T08:11:03.610Z,7.72
2023-02-20T08:13:37.964Z,7.63
2023-02-20T08:16:08.221Z,7.76
2023-02-20T08:18:37.671Z,7.87
2023-02-20T08:21:07.380Z,7.92
2023-02-20T08:23:39.392Z,7.86
2023-02-20T08:26:08.878Z,7.93
2023-02-20T08:28:38.280Z,7.87
2023-02-20T08:31:08.165Z,7.87
2023-02-20T08:33:37.581Z,7.76
2023-02-20T08:36:08.577Z,7.94
2023-02-20T08:38:41.604Z,7.95
2023-02-20T08:41:13.588Z,7.93
2023-02-20T08:43:46.105Z,8.11
2023-02-20T08:46:16.212Z,8.25
2023-02-20T08:48:46.303Z,8.29
2023-02-20T08:51:16.123Z,8.25
2023-02-20T08:53:48.161Z,8.33
2023-02-20T08:56:20.917Z,8.43
2023-02-20T08:58:50.193Z,8.33
2023-02-20T09:01:19.712Z,8.48
2023-02-20T09:03:49.797Z,8.51
2023-02-20T09:06:19.444Z,8.54
2023-02-20T09:08:51.417Z,8.42
2023-02-20T09:11:22.007Z,8.58
2023-02-20T09:13:52.052Z,8.79
2023-02-20T09:16:24.330Z,8.79
2023-02-20T09:18:57.337Z,8.88
2023-02-20T09:21:28.666Z,8.65
2023-02-20T09:24:00.646Z,8.54
2023-02-20T09:26:30.126Z,8.34
2023-02-20T09:28:59.515Z,8.45
2023-02-20T09:31:29.023Z,8.41
2023-02-20T09:33:58.492Z,8.54
2023-02-20T09:36:27.862Z,8.31
2023-02-20T09:38:59.862Z,8.33
2023-02-20T09:41:44.859Z,8.28
2023-02-20T09:44:21.227Z,8.26
2023-02-20T09:46:52.566Z,8.19
2023-02-20T09:49:26.319Z,8.42
2023-02-20T09:51:59.003Z,8.38
2023-02-20T09:54:34.570Z,8.48
2023-02-20T09:57:07.887Z,8.40
2023-02-20T09:59:43.693Z,8.37
2023-02-20T10:02:19.476Z,8.40
2023-02-20T10:05:00.812Z,8.30
2023-02-20T10:07:33.544Z,8.32
2023-02-20T10:10:19.740Z,8.35
2023-02-20T10:13:02.293Z,8.47
2023-02-20T10:15:41.379Z,8.20
2023-02-20T10:18:24.382Z,8.32
2023-02-20T10:21:05.519Z,8.31
2023-02-20T10:23:45.618Z,8.43
2023-02-20T10:26:24.280Z,8.44
2023-02-20T10:28:54.377Z,8.46
2023-02-20T10:31:32.714Z,8.43
2023-02-20T10:34:09.424Z,8.50
2023-02-20T10:36:42.851Z,8.18
2023-02-20T10:39:15.500Z,8.17
2023-02-20T10:41:55.319Z,8.24
2023-02-20T10:44:35.465Z,8.27
2023-02-20T10:47:13.394Z,8.29
2023-02-20T10:49:48.447Z,8.37
2023-02-20T10:52:33.036Z,8.56
2023-02-20T10:55:11.934Z,8.36
2023-02-20T10:57:50.980Z,8.34
2023-02-20T11:00:25.606Z,8.20
2023-02-20T11:03:00.369Z,8.21
2023-02-20T11:05:35.295Z,8.16
2023-02-20T11:08:04.748Z,8.25
2023-02-20T11:10:35.444Z,8.27
2023-02-20T11:13:11.311Z,8.13
2023-02-20T11:15:40.979Z,8.11
2023-02-20T11:18:22.965Z,8.29
2023-02-20T11:20:52.698Z,8.17
2023-02-20T11:23:43.138Z,8.17
2023-02-20T11:26:32.154Z,8.18
2023-02-20T11:29:09.431Z,8.19
2023-02-20T11:31:39.508Z,7.91
2023-02-20T11:34:15.432Z,8.15
2023-02-20T11:36:47.997Z,8.21
2023-02-20T11:39:23.697Z,8.10
2023-02-20T11:42:06.953Z,8.11
2023-02-20T11:44:39.101Z,8.13
2023-02-20T11:47:30.681Z,8.09
2023-02-20T11:50:19.535Z,8.10
2023-02-20T11:53:05.326Z,8.11
2023-02-20T11:55:35.069Z,8.09
2023-02-20T11:58:05.914Z,8.20
2023-02-20T12:00:50.813Z,8.13
2023-02-20T12:03:24.711Z,8.00
2023-02-20T12:05:55.015Z,8.00
2023-02-20T12:08:45.994Z,8.15
2023-02-20T12:11:18.560Z,8.13
2023-02-20T12:13:49.814Z,8.19
2023-02-20T12:16:37.278Z,8.06
2023-02-20T12:19:18.396Z,7.99
2023-02-20T12:22:06.645Z,8.16
2023-02-20T12:24:54.363Z,8.05
2023-02-20T12:27:39.042Z,8.21
2023-02-20T12:30:27.419Z,8.20
2023-02-20T12:33:13.723Z,8.29
2023-02-20T12:35:55.007Z,8.21
2023-02-20T12:38:35.948Z,8.27
2023-02-20T12:41:24.827Z,8.18
2023-02-20T12:44:13.325Z,8.23
2023-02-20T12:46:52.330Z,8.21
2023-02-20T12:49:44.670Z,8.28
2023-02-20T12:52:34.569Z,8.14
2023-02-20T12:55:19.230Z,8.18
2023-02-20T12:57:54.246Z,8.17
2023-02-20T13:00:35.063Z,8.26
2023-02-20T13:03:12.777Z,8.08
2023-02-20T13:05:48.048Z,8.09
2023-02-20T13:08:21.109Z,8.17
2023-02-20T13:10:55.806Z,8.27
2023-02-20T13:13:26.405Z,8.23
2023-02-20T13:16:04.531Z,8.15
2023-02-20T13:18:46.323Z,7.99
2023-02-20T13:21:21.105Z,8.21
2023-02-20T13:23:53.284Z,8.19
2023-02-20T13:26:49.854Z,8.17
2023-02-20T13:29:23.307Z,8.14
2023-02-20T13:31:55.217Z,8.15
2023-02-20T13:34:39.521Z,8.17
2023-02-20T13:37:50.505Z,8.32
2023-02-20T13:40:39.854Z,8.35
2023-02-20T13:43:31.678Z,8.45
2023-02-20T13:46:30.431Z,8.43
2023-02-20T13:48:59.916Z,8.44
2023-02-20T13:51:37.616Z,8.51
2023-02-20T13:54:27.086Z,8.41
2023-02-20T13:57:02.634Z,8.61
2023-02-20T13:59:34.515Z,8.53
2023-02-20T14:02:07.031Z,8.49
2023-02-20T14:04:36.545Z,8.56
2023-02-20T14:07:06.065Z,8.38
2023-02-20T14:09:38.063Z,8.42
2023-02-20T14:12:10.965Z,8.39
2023-02-20T14:14:45.655Z,8.36
2023-02-20T14:17:19.421Z,8.42
2023-02-20T14:19:51.798Z,8.41
2023-02-20T14:22:29.773Z,8.43
2023-02-20T14:25:27.424Z,8.44
2023-02-20T14:28:09.111Z,8.35
2023-02-20T14:30:38.762Z,8.42
2023-02-20T14:33:21.596Z,8.31
2023-02-20T14:36:09.683Z,8.38
2023-02-20T14:38:52.707Z,8.41
2023-02-20T14:41:26.057Z,8.42
2023-02-20T14:44:00.177Z,8.32
2023-02-20T14:46:32.608Z,8.44
2023-02-20T14:49:12.029Z,8.51
2023-02-20T14:51:41.905Z,8.44
2023-02-20T14:54:22.400Z,8.48
2023-02-20T14:56:55.501Z,8.40
2023-02-20T14:59:27.161Z,8.34
2023-02-20T15:01:59.742Z,8.30
2023-02-20T15:04:30.298Z,8.27
2023-02-20T15:07:06.965Z,8.28
2023-02-20T15:09:41.524Z,8.33
2023-02-20T15:12:22.692Z,8.34
2023-02-20T15:14:59.446Z,8.41
2023-02-20T15:17:31.403Z,8.31
2023-02-20T15:20:02.427Z,8.36
2023-02-20T15:22:37.059Z,8.34
2023-02-20T15:25:30.505Z,8.20
2023-02-20T15:28:11.795Z,8.28
2023-02-20T15:31:07.126Z,8.15
2023-02-20T15:33:38.571Z,8.21
2023-02-20T15:36:15.097Z,8.24
2023-02-20T15:38:44.699Z,8.21
2023-02-20T15:41:14.707Z,8.22
2023-02-20T15:43:50.707Z,8.28
2023-02-20T15:46:22.088Z,8.29
2023-02-20T15:48:51.605Z,8.22
2023-02-20T15:51:23.954Z,8.27
2023-02-20T15:53:55.895Z,8.25
2023-02-20T15:56:25.418Z,8.30
2023-02-20T15:58:57.491Z,8.28
2023-02-20T16:01:26.925Z,8.28
2023-02-20T16:03:56.359Z,8.19
2023-02-20T16:06:26.459Z,8.18
2023-02-20T16:08:56.358Z,8.18
2023-02-20T16:11:29.102Z,8.04
2023-02-20T16:14:02.893Z,8.09
2023-02-20T16:16:36.017Z,8.17
2023-02-20T16:19:06.152Z,8.09
2023-02-20T16:21:35.575Z,8.05
2023-02-20T16:24:04.952Z,8.12
2023-02-20T16:26:36.659Z,8.19
2023-02-20T16:29:11.332Z,8.17
2023-02-20T16:32:10.916Z,8.07
2023-02-20T16:34:40.575Z,8.10
2023-02-20T16:37:12.912Z,8.14
2023-02-20T16:39:42.637Z,8.17
2023-02-20T16:42:33.093Z,8.12
2023-02-20T16:45:07.770Z,8.14
2023-02-20T16:47:37.209Z,8.16
2023-02-20T16:50:07.537Z,8.14
2023-02-20T16:52:39.947Z,8.19
2023-02-20T16:55:21.275Z,8.13
2023-02-20T16:57:50.836Z,8.04
2023-02-20T17:00:25.256Z,8.03
2023-02-20T17:02:55.275Z,8.07
2023-02-20T17:05:27.841Z,8.10
2023-02-20T17:07:57.716Z,8.07
2023-02-20T17:10:28.278Z,8.09
2023-02-20T17:13:02.354Z,8.08
2023-02-20T17:15:36.229Z,8.02
2023-02-20T17:18:07.585Z,8.04
2023-02-20T17:20:37.536Z,8.10
2023-02-20T17:23:06.893Z,8.05
2023-02-20T17:25:36.559Z,8.08
2023-02-20T17:28:07.944Z,8.11
2023-02-20T17:30:40.015Z,8.10
2023-02-20T17:33:09.479Z,8.08
2023-02-20T17:35:38.910Z,8.16
2023-02-20T17:38:08.310Z,8.17
2023-02-20T17:40:37.977Z,8.19
2023-02-20T17:43:07.884Z,8.31
2023-02-20T17:45:39.850Z,8.32
2023-02-20T17:48:09.453Z,8.29
2023-02-20T17:50:38.952Z,8.36
2023-02-20T17:53:09.190Z,8.39
2023-02-20T17:55:38.851Z,8.37
2023-02-20T17:58:09.041Z,8.42
2023-02-20T18:00:41.138Z,8.42
2023-02-20T18:03:10.710Z,8.45
2023-02-20T18:05:40.104Z,8.47
2023-02-20T18:08:09.504Z,8.44
2023-02-20T18:10:38.854Z,8.48
2023-02-20T18:13:08.321Z,8.49
2023-02-20T18:15:43.335Z,8.53
2023-02-20T18:18:15.705Z,8.51
2023-02-20T18:20:45.319Z,8.50
2023-02-20T18:23:14.721Z,8.54
2023-02-20T18:25:44.116Z,8.56
2023-02-20T18:28:13.981Z,8.57
2023-02-20T18:30:46.282Z,8.52
2023-02-20T18:33:16.174Z,8.57
2023-02-20T18:35:50.609Z,8.57
2023-02-20T18:38:28.019Z,8.55
2023-02-20T18:40:58.693Z,8.61
2023-02-20T18:43:28.462Z,8.64
2023-02-20T18:46:00.580Z,8.66
2023-02-20T18:48:29.993Z,8.66
2023-02-20T18:50:59.382Z,8.69
2023-02-20T18:53:28.771Z,8.74
2023-02-20T18:55:58.186Z,8.75
2023-02-20T18:58:27.801Z,8.71
2023-02-20T19:01:00.751Z,8.75
2023-02-20T19:03:30.405Z,8.67
2023-02-20T19:06:00.876Z,8.76
2023-02-20T19:08:30.271Z,8.76
2023-02-20T19:10:59.778Z,8.70
2023-02-20T19:13:29.204Z,8.69
2023-02-20T19:16:01.260Z,8.69
2023-02-20T19:18:32.353Z,8.70
2023-02-20T19:21:03.123Z,8.70
2023-02-20T19:23:32.891Z,8.72
2023-02-20T19:26:02.318Z,8.75
2023-02-20T19:28:33.092Z,8.79
2023-02-20T19:31:05.157Z,8.81
2023-02-20T19:33:34.640Z,8.83
2023-02-20T19:36:04.071Z,8.85
2023-02-20T19:38:34.773Z,8.82
2023-02-20T19:41:04.137Z,8.76
2023-02-20T19:43:33.478Z,8.77
2023-02-20T19:46:05.583Z,8.81
2023-02-20T19:48:34.962Z,8.83
2023-02-20T19:51:05.200Z,8.76
2023-02-20T19:53:35.948Z,8.83
2023-02-20T19:56:05.470Z,8.85
2023-02-20T19:58:36.638Z,8.91
2023-02-20T20:01:08.852Z,8.87
2023-02-20T20:03:38.218Z,8.96
2023-02-20T20:06:11.410Z,8.98
2023-02-20T20:08:56.579Z,8.98
2023-02-20T20:11:30.461Z,8.99
2023-02-20T20:13:59.795Z,8.99
2023-02-20T20:16:32.626Z,9.03
2023-02-20T20:19:02.355Z,8.95
2023-02-20T20:21:31.705Z,8.99
2023-02-20T20:24:01.430Z,8.96
2023-02-20T20:26:32.580Z,8.96
2023-02-20T20:29:02.972Z,8.98
2023-02-20T20:31:44.237Z,9.02
2023-02-20T20:34:13.604Z,9.00
2023-02-20T20:36:43.041Z,8.99
2023-02-20T20:39:12.422Z,8.95
2023-02-20T20:41:45.620Z,8.85
2023-02-20T20:44:15.260Z,8.91
2023-02-20T20:46:47.237Z,8.91
2023-02-20T20:49:16.637Z,8.87
2023-02-20T20:51:47.426Z,8.90
2023-02-20T20:54:16.828Z,8.83
2023-02-20T20:56:50.452Z,8.83
2023-02-20T20:59:20.328Z,8.77
2023-02-20T21:01:52.413Z,8.75
2023-02-20T21:04:21.831Z,8.67
2023-02-20T21:06:51.219Z,8.76
2023-02-20T21:09:20.774Z,8.67
2023-02-20T21:11:50.430Z,8.64
2023-02-20T21:14:20.618Z,8.67
2023-02-20T21:16:52.625Z,8.69
2023-02-20T21:19:23.947Z,8.66
2023-02-20T21:21:53.362Z,8.57
2023-02-20T21:24:23.462Z,8.59
2023-02-20T21:26:52.866Z,8.60
2023-02-20T21:29:22.256Z,8.65
2023-02-20T21:31:54.309Z,8.58
2023-02-20T21:34:23.668Z,8.54
2023-02-20T21:36:53.085Z,8.51
2023-02-20T21:39:24.145Z,8.56
2023-02-20T21:42:07.205Z,8.61
2023-02-20T21:44:39.100Z,8.56
2023-02-20T21:47:13.021Z,8.58
2023-02-20T21:49:45.994Z,8.66
2023-02-20T21:52:15.992Z,8.57
2023-02-20T21:54:49.828Z,8.60
2023-02-20T21:57:19.204Z,8.56
2023-02-20T21:59:45.857Z,8.51
2023-02-20T22:02:19.841Z,8.50
2023-02-20T22:04:46.567Z,8.49
2023-02-20T22:07:28.863Z,8.49
2023-02-20T22:10:10.764Z,8.53
2023-02-20T22:12:52.688Z,8.50
2023-02-20T22:15:34.621Z,8.49
2023-02-20T22:18:19.166Z,8.46
2023-02-20T22:21:01.092Z,8.45
2023-02-20T22:23:43.152Z,8.50
2023-02-20T22:26:25.770Z,8.50
2023-02-20T22:29:07.751Z,8.49
2023-02-20T22:31:49.847Z,8.47
2023-02-20T22:34:34.401Z,8.48
2023-02-20T22:37:16.317Z,8.45
2023-02-20T22:39:58.252Z,8.48
2023-02-20T22:42:40.161Z,8.45
2023-02-20T22:45:22.678Z,8.45
2023-02-20T22:48:04.576Z,8.53
2023-02-20T22:50:49.077Z,8.57
2023-02-20T22:53:30.990Z,8.51
2023-02-20T22:56:12.874Z,8.55
2023-02-20T22:58:54.771Z,8.58
2023-02-20T23:01:36.694Z,8.62
2023-02-20T23:04:19.003Z,8.60
2023-02-20T23:07:05.276Z,8.55
2023-02-20T23:09:47.434Z,8.57
2023-02-20T23:12:29.630Z,8.61
2023-02-20T23:15:11.838Z,8.56
2023-02-20T23:17:53.729Z,8.61
2023-02-20T23:20:37.818Z,8.65
2023-02-20T23:23:23.493Z,8.70
2023-02-20T23:26:05.466Z,8.68
2023-02-20T23:28:47.420Z,8.70
2023-02-20T23:31:30.757Z,8.64
2023-02-20T23:34:12.782Z,8.68
2023-02-20T23:37:01.334Z,8.68
2023-02-20T23:39:45.838Z,8.76
2023-02-20T23:42:27.697Z,8.68
2023-02-20T23:45:09.834Z,8.73
2023-02-20T23:47:51.755Z,8.77
2023-02-20T23:50:33.696Z,8.76
2023-02-20T23:53:15.657Z,8.78
2023-02-20T23:56:00.171Z,8.77
2023-02-20T23:58:44.626Z,8.79
